Grand Princess — ZCBU5 — position and weather

sailwx.info

Track history (hours):
 
Tides and Currents Weather Stations Pressure Air Temp Water Temp Dewpoint Dewpoint Depression Visibility Wind Speed Wind Dir Waves Ship Positions

Grand Princess

Operator: Princess Cruises

Last reported at 2017-Jul-21 12:00 UTC. Time now 2017-Jul-22 04:42 UTC.
Position N 58°48' W 135°06'.

Length 289.5 m; beam 36 m; draft 8.5 m.

Type: Passenger vessel. MMSI: 310327000.

Wind from 170 at 12 knots

Barometer 1015.0 mb
Air temperature 13.5 ° C
Visibility: greater than 10.8 NM
Dewpoint 11.6 ° C
Water temperature 14.0 ° C

Date/timePositionNaut miles runAvg speedWind from/ knotsBaromVisibWave heightAir tempDewpointWater temp
2017-Jul-21 12:00N 58°48' W 135°06'0 0.0 170 / 121015.010.8 13.511.614.0
2017-Jul-21 11:00N 58°48' W 135°06'73 4.3 170 / 121015.010.8 13.511.614.0
2017-Jul-20 18:00N 57°48' W 133°48'13319.0 140 / 31015.710.8 13.011.113.0
2017-Jul-20 11:00N 55°36' W 134°18'8120.2 110 / 91014.710.8 13.011.113.0
2017-Jul-20 07:00N 54°18' W 133°42'18620.6 190 / 61015.110.8 13.511.614.0
2017-Jul-19 22:00N 51°24' W 131°54'15021.4 240 / 81018.310.8 14.511.516.0
2017-Jul-19 15:00N 49°06' W 130°24'10420.8 260 / 101019.110.8 15.511.816.0
2017-Jul-19 10:00N 47°30' W 129°24'9222.9 260 / 101018.110.8 14.512.716.0
2017-Jul-19 06:00N 46°06' W 128°30'6520.9 230 / 101018.510.8 17.014.414.0
2017-Jul-19 02:54N 45°07' W 127°51'921.4
2017-Jul-19 02:29N 44°59' W 127°46'1326.7
2017-Jul-19 02:00N 44°48' W 127°36'1017.4 280 / 101019.210.8 17.011.517.0
2017-Jul-19 01:24N 44°38' W 127°32'1221.4
2017-Jul-19 00:49N 44°27' W 127°25'1021.3
2017-Jul-19 00:22N 44°18' W 127°19'2721.7
2017-Jul-18 23:08N 43°54' W 127°04'2221.6
2017-Jul-18 22:05N 43°33' W 126°51'621.3
2017-Jul-18 21:48N 43°28' W 126°47'821.0
2017-Jul-18 21:24N 43°20' W 126°42'1920.8
2017-Jul-18 20:29N 43°03' W 126°32'1120.0
2017-Jul-18 19:57N 42°53' W 126°25'920.2
2017-Jul-18 19:30N 42°45' W 126°20'1120.1
2017-Jul-18 18:59N 42°35' W 126°14'1120.6
2017-Jul-18 18:28N 42°26' W 126°08'1321.0
2017-Jul-18 17:51N 42°14' W 126°01'820.6
2017-Jul-18 17:29N 42°07' W 125°57'1020.6
2017-Jul-18 17:00N 41°58' W 125°51'1020.6
2017-Jul-18 16:30N 41°48' W 125°45'1020.6
2017-Jul-18 16:00N 41°39' W 125°40'1120.7
2017-Jul-18 15:30N 41°30' W 125°34'1427.5
2017-Jul-18 15:00N 41°18' W 125°24'3116.5 340 / 281016.810.8 14.010.215.0
2017-Jul-18 14:58N 41°20' W 125°28'2121.5
2017-Jul-18 14:00N 41°00' W 125°18'2196.2 340 / 281016.710.8 14.010.215.0
2017-Jul-18 13:59N 41°02' W 125°17'8220.5
2017-Jul-18 10:00N 39°48' W 124°30'5119.2 340 / 391014.410.8 13.011.112.0
2017-Jul-18 07:21N 39°01' W 124°05'719.7
2017-Jul-18 07:01N 38°56' W 124°00'1019.9
2017-Jul-18 06:31N 38°47' W 123°53'1020.3
2017-Jul-18 06:01N 38°39' W 123°46'1020.3
2017-Jul-18 05:30N 38°30' W 123°38'1020.0
2017-Jul-18 05:00N 38°22' W 123°31'1019.5
2017-Jul-18 04:30N 38°14' W 123°24'713.5
2017-Jul-18 04:00N 38°09' W 123°20'4234.0
2017-Jul-18 04:00N 38°12' W 123°18'815.7 320 / 321012.310.8 13.0 9.111.0
2017-Jul-18 03:30N 38°05' W 123°15'510.1
2017-Jul-18 03:00N 38°01' W 123°11'510.0
2017-Jul-18 02:30N 37°57' W 123°06'510.5
2017-Jul-18 02:00N 37°55' W 123°01'159.8
2017-Jul-18 02:00N 37°54' W 123°00'5 9.4 320 / 321012.310.8 13.0 9.111.0
2017-Jul-18 01:30N 37°52' W 122°55'510.5
2017-Jul-18 01:00N 37°50' W 122°49'611.3
2017-Jul-18 00:30N 37°47' W 122°42'611.1
2017-Jul-18 00:00N 37°47' W 122°35'713.6
2017-Jul-17 23:30N 37°49' W 122°27'3 5.4
2017-Jul-17 22:58N 37°48' W 122°24'0 0.0
2017-Jul-17 22:28N 37°48' W 122°24'0 0.0
2017-Jul-17 21:58N 37°48' W 122°24'0 0.0
2017-Jul-17 21:28N 37°48' W 122°24'0 0.0
2017-Jul-17 21:00N 37°48' W 122°24'0 0.0
2017-Jul-17 20:30N 37°48' W 122°24'0 0.0
2017-Jul-17 20:00N 37°48' W 122°24'0 0.0
2017-Jul-17 19:30N 37°48' W 122°24'0 0.0
2017-Jul-17 18:59N 37°48' W 122°24'0 0.0
2017-Jul-17 18:29N 37°48' W 122°24'0 0.0
2017-Jul-17 17:59N 37°48' W 122°24'0 0.0
2017-Jul-17 17:29N 37°48' W 122°24'0 0.0
2017-Jul-17 16:59N 37°48' W 122°24'0 0.0
2017-Jul-17 16:28N 37°48' W 122°24'0 0.0
2017-Jul-17 15:58N 37°48' W 122°24'0 0.0
2017-Jul-17 15:28N 37°48' W 122°24'0 0.0
2017-Jul-17 14:58N 37°48' W 122°24'0 0.0
2017-Jul-17 14:28N 37°48' W 122°24'0 0.0
2017-Jul-17 14:00N 37°48' W 122°24'0 0.1
2017-Jul-17 13:30N 37°48' W 122°24'2 3.2
2017-Jul-17 13:01N 37°49' W 122°26'713.6
2017-Jul-17 12:31N 37°47' W 122°34'612.4
2017-Jul-17 12:00N 37°46' W 122°42'510.4
2017-Jul-17 11:31N 37°47' W 122°48'510.2
2017-Jul-17 11:01N 37°50' W 122°54'510.0
2017-Jul-17 10:31N 37°52' W 122°59'510.1
2017-Jul-17 10:00N 37°55' W 123°05'8540.1
2017-Jul-17 10:00N 37°48' W 123°00'1225.1 330 / 231010.610.8 12.5 9.613.0
2017-Jul-17 09:30N 37°57' W 123°10'510.0
2017-Jul-17 09:00N 38°01' W 123°14'510.1
2017-Jul-17 08:30N 38°05' W 123°19'510.5
2017-Jul-17 08:00N 38°09' W 123°23'1019.3
2017-Jul-17 07:30N 38°17' W 123°29'1019.9
2017-Jul-17 07:01N 38°25' W 123°36'1019.7
2017-Jul-17 06:30N 38°34' W 123°43'1020.9
2017-Jul-17 06:01N 38°42' W 123°50'1122.0
2017-Jul-17 05:30N 38°52' W 123°58'1221.6
2017-Jul-17 04:58N 39°02' W 124°06'1022.2
2017-Jul-17 04:30N 39°11' W 124°11'1122.7
2017-Jul-17 04:00N 39°22' W 124°15'171081.7
2017-Jul-17 04:00N 39°06' W 124°06'2959.6 330 / 341015.8 5.4 14.0 8.010.0
2017-Jul-17 03:30N 39°33' W 124°21'191126.3
2017-Jul-17 02:00N 42°42' W 124°54'0 0.0 330 / 341015.810.8 14.0 8.010.0
2017-Jul-16 19:00N 42°42' W 124°54'15619.8 020 / 251022.910.8 16.012.412.0
2017-Jul-16 11:05N 45°18' W 125°08'219.9
2017-Jul-16 10:58N 45°21' W 125°08'920.0
2017-Jul-16 10:30N 45°30' W 125°08'1020.5
2017-Jul-16 10:01N 45°40' W 125°09'1020.3
2017-Jul-16 09:30N 45°50' W 125°10'1020.4
2017-Jul-16 09:00N 46°00' W 125°10'1020.2
2017-Jul-16 08:30N 46°10' W 125°11'1020.1
2017-Jul-16 08:00N 46°20' W 125°12'1020.2
2017-Jul-16 07:30N 46°31' W 125°11'1020.0
2017-Jul-16 07:00N 46°41' W 125°11'1020.2
2017-Jul-16 06:31N 46°50' W 125°14'1020.2
2017-Jul-16 06:00N 47°00' W 125°15'7490.8
2017-Jul-16 06:00N 46°54' W 125°12'1832.3 280 / 201023.810.8 15.011.317.0
2017-Jul-16 05:26N 47°12' W 125°16'4720.1
2017-Jul-16 03:04N 47°59' W 125°20'219.3
2017-Jul-16 02:59N 48°01' W 125°20'919.7
2017-Jul-16 02:30N 48°10' W 125°15'1019.8
2017-Jul-16 02:00N 48°19' W 125°10'8709.0
2017-Jul-16 02:00N 48°12' W 125°06'1632.7 180 / 111023.510.8 16.0 8.113.0
2017-Jul-16 01:30N 48°28' W 125°04'918.3
2017-Jul-16 01:00N 48°31' W 124°51'1019.6
2017-Jul-16 00:30N 48°29' W 124°36'1019.7
2017-Jul-16 00:00N 48°25' W 124°23'1019.6
2017-Jul-15 23:30N 48°21' W 124°09'919.2
2017-Jul-15 23:00N 48°18' W 123°55'1019.6
2017-Jul-15 22:30N 48°16' W 123°41'917.8
2017-Jul-15 22:00N 48°18' W 123°28'612.6
2017-Jul-15 21:30N 48°24' W 123°24'1 1.9
2017-Jul-15 21:00N 48°25' W 123°23'0 0.0
2017-Jul-15 20:29N 48°25' W 123°23'0 0.0
2017-Jul-15 19:59N 48°25' W 123°23'0 0.0
2017-Jul-15 19:29N 48°25' W 123°23'0 0.0
2017-Jul-15 18:59N 48°25' W 123°23'0 0.0
2017-Jul-15 18:29N 48°25' W 123°23'0 0.0
2017-Jul-15 17:58N 48°25' W 123°23'0 0.0
2017-Jul-15 17:28N 48°25' W 123°23'0 0.0
2017-Jul-15 16:58N 48°25' W 123°23'0 0.0
2017-Jul-15 16:28N 48°25' W 123°23'0 0.0
2017-Jul-15 16:01N 48°25' W 123°23'0 0.0
2017-Jul-15 15:30N 48°25' W 123°23'0 0.0
2017-Jul-15 15:00N 48°25' W 123°23'0 0.0
2017-Jul-15 14:00N 48°25' W 123°23'2 3.5
2017-Jul-15 13:30N 48°23' W 123°25'713.8
2017-Jul-15 13:00N 48°17' W 123°26'917.9
2017-Jul-15 12:30N 48°14' W 123°39'919.1
2017-Jul-15 12:00N 48°14' W 123°53'1020.0
2017-Jul-15 11:30N 48°17' W 124°07'1019.4
2017-Jul-15 11:00N 48°21' W 124°21'919.0
2017-Jul-15 10:31N 48°25' W 124°34'918.8
2017-Jul-15 10:01N 48°28' W 124°47'1019.7
2017-Jul-15 09:31N 48°29' W 125°02'1019.0
2017-Jul-15 09:00N 48°31' W 125°16'1019.1
2017-Jul-15 08:30N 48°36' W 125°28'1019.7
2017-Jul-15 08:00N 48°42' W 125°40'1019.7
2017-Jul-15 07:31N 48°48' W 125°52'1019.8
2017-Jul-15 07:00N 48°54' W 126°04'1019.8
2017-Jul-15 06:30N 48°59' W 126°17'1019.6
2017-Jul-15 06:01N 49°05' W 126°29'6347.9
2017-Jul-15 06:00N 49°00' W 126°24'1632.3 180 / 81020.010.8 14.012.215.0
2017-Jul-15 05:30N 49°11' W 126°41'1020.4
2017-Jul-15 05:00N 49°17' W 126°54'917.5
2017-Jul-15 04:31N 49°22' W 127°04'4417.6
2017-Jul-15 02:00N 49°48' W 128°00'2128.1 140 / 61019.610.8 14.311.914.0
2017-Jul-15 01:14N 50°04' W 128°22'12219.6
2017-Jul-14 19:00N 51°24' W 130°48'7815.5 160 / 91021.010.8 13.011.112.0
2017-Jul-14 14:00N 52°18' W 132°18'3535.1 130 / 61020.410.8 13.512.214.0
2017-Jul-14 13:00N 52°48' W 132°48'8614.3 100 / 81022.810.8 13.012.611.0
2017-Jul-14 07:00N 54°06' W 133°48'7318.3 150 / 81019.710.8 12.510.613.0
2017-Jul-14 03:00N 55°18' W 134°12'12115.1 120 / 171018.810.8 13.010.712.0
2017-Jul-13 19:00N 57°18' W 133°48'12 1.4 190 / 51017.810.8 12.010.1 4.0
2017-Jul-13 10:00N 57°30' W 133°42'2512.4 150 / 91016.210.8 10.5 9.511.0
2017-Jul-13 08:00N 57°54' W 133°54'61 2.5 140 / 41016.2 5.4 10.5 9.511.0
2017-Jul-12 08:00N 58°42' W 135°06'12 0.7 340 / 161015.010.8 10.5 9.513.0
2017-Jul-11 15:00N 58°30' W 135°00'   340 / 71012.410.8 11.0 9.011.0
Track history (hours):
 
Tides and Currents Weather Stations Pressure Air Temp Water Temp Dewpoint Dewpoint Depression Visibility Wind Speed Wind Dir Waves Ship Positions

Grand Princess

Operator: Princess Cruises

Last reported at 2017-Jul-21 12:00 UTC. Time now 2017-Jul-22 04:42 UTC.
Position N 58°48' W 135°06'.

Length 289.5 m; beam 36 m; draft 8.5 m.

Type: Passenger vessel. MMSI: 310327000.

Wind from 170 at 12 knots

Barometer 1015.0 mb
Air temperature 13.5 ° C
Visibility: greater than 10.8 NM
Dewpoint 11.6 ° C
Water temperature 14.0 ° C

Date/timePositionNaut miles runAvg speedWind from/ knotsBaromVisibWave heightAir tempDewpointWater temp
2017-Jul-21 12:00N 58°48' W 135°06'0 0.0 170 / 121015.010.8 13.511.614.0
2017-Jul-21 11:00N 58°48' W 135°06'73 4.3 170 / 121015.010.8 13.511.614.0
2017-Jul-20 18:00N 57°48' W 133°48'13319.0 140 / 31015.710.8 13.011.113.0
2017-Jul-20 11:00N 55°36' W 134°18'8120.2 110 / 91014.710.8 13.011.113.0
2017-Jul-20 07:00N 54°18' W 133°42'18620.6 190 / 61015.110.8 13.511.614.0
2017-Jul-19 22:00N 51°24' W 131°54'15021.4 240 / 81018.310.8 14.511.516.0
2017-Jul-19 15:00N 49°06' W 130°24'10420.8 260 / 101019.110.8 15.511.816.0
2017-Jul-19 10:00N 47°30' W 129°24'9222.9 260 / 101018.110.8 14.512.716.0
2017-Jul-19 06:00N 46°06' W 128°30'6520.9 230 / 101018.510.8 17.014.414.0
2017-Jul-19 02:54N 45°07' W 127°51'921.4
2017-Jul-19 02:29N 44°59' W 127°46'1326.7
2017-Jul-19 02:00N 44°48' W 127°36'1017.4 280 / 101019.210.8 17.011.517.0
2017-Jul-19 01:24N 44°38' W 127°32'1221.4
2017-Jul-19 00:49N 44°27' W 127°25'1021.3
2017-Jul-19 00:22N 44°18' W 127°19'2721.7
2017-Jul-18 23:08N 43°54' W 127°04'2221.6
2017-Jul-18 22:05N 43°33' W 126°51'621.3
2017-Jul-18 21:48N 43°28' W 126°47'821.0
2017-Jul-18 21:24N 43°20' W 126°42'1920.8
2017-Jul-18 20:29N 43°03' W 126°32'1120.0
2017-Jul-18 19:57N 42°53' W 126°25'920.2
2017-Jul-18 19:30N 42°45' W 126°20'1120.1
2017-Jul-18 18:59N 42°35' W 126°14'1120.6
2017-Jul-18 18:28N 42°26' W 126°08'1321.0
2017-Jul-18 17:51N 42°14' W 126°01'820.6
2017-Jul-18 17:29N 42°07' W 125°57'1020.6
2017-Jul-18 17:00N 41°58' W 125°51'1020.6
2017-Jul-18 16:30N 41°48' W 125°45'1020.6
2017-Jul-18 16:00N 41°39' W 125°40'1120.7
2017-Jul-18 15:30N 41°30' W 125°34'1427.5
2017-Jul-18 15:00N 41°18' W 125°24'3116.5 340 / 281016.810.8 14.010.215.0
2017-Jul-18 14:58N 41°20' W 125°28'2121.5
2017-Jul-18 14:00N 41°00' W 125°18'2196.2 340 / 281016.710.8 14.010.215.0
2017-Jul-18 13:59N 41°02' W 125°17'8220.5
2017-Jul-18 10:00N 39°48' W 124°30'5119.2 340 / 391014.410.8 13.011.112.0
2017-Jul-18 07:21N 39°01' W 124°05'719.7
2017-Jul-18 07:01N 38°56' W 124°00'1019.9
2017-Jul-18 06:31N 38°47' W 123°53'1020.3
2017-Jul-18 06:01N 38°39' W 123°46'1020.3
2017-Jul-18 05:30N 38°30' W 123°38'1020.0
2017-Jul-18 05:00N 38°22' W 123°31'1019.5
2017-Jul-18 04:30N 38°14' W 123°24'713.5
2017-Jul-18 04:00N 38°09' W 123°20'4234.0
2017-Jul-18 04:00N 38°12' W 123°18'815.7 320 / 321012.310.8 13.0 9.111.0
2017-Jul-18 03:30N 38°05' W 123°15'510.1
2017-Jul-18 03:00N 38°01' W 123°11'510.0
2017-Jul-18 02:30N 37°57' W 123°06'510.5
2017-Jul-18 02:00N 37°55' W 123°01'159.8
2017-Jul-18 02:00N 37°54' W 123°00'5 9.4 320 / 321012.310.8 13.0 9.111.0
2017-Jul-18 01:30N 37°52' W 122°55'510.5
2017-Jul-18 01:00N 37°50' W 122°49'611.3
2017-Jul-18 00:30N 37°47' W 122°42'611.1
2017-Jul-18 00:00N 37°47' W 122°35'713.6
2017-Jul-17 23:30N 37°49' W 122°27'3 5.4
2017-Jul-17 22:58N 37°48' W 122°24'0 0.0
2017-Jul-17 22:28N 37°48' W 122°24'0 0.0
2017-Jul-17 21:58N 37°48' W 122°24'0 0.0
2017-Jul-17 21:28N 37°48' W 122°24'0 0.0
2017-Jul-17 21:00N 37°48' W 122°24'0 0.0
2017-Jul-17 20:30N 37°48' W 122°24'0 0.0
2017-Jul-17 20:00N 37°48' W 122°24'0 0.0
2017-Jul-17 19:30N 37°48' W 122°24'0 0.0
2017-Jul-17 18:59N 37°48' W 122°24'0 0.0
2017-Jul-17 18:29N 37°48' W 122°24'0 0.0
2017-Jul-17 17:59N 37°48' W 122°24'0 0.0
2017-Jul-17 17:29N 37°48' W 122°24'0 0.0
2017-Jul-17 16:59N 37°48' W 122°24'0 0.0
2017-Jul-17 16:28N 37°48' W 122°24'0 0.0
2017-Jul-17 15:58N 37°48' W 122°24'0 0.0
2017-Jul-17 15:28N 37°48' W 122°24'0 0.0
2017-Jul-17 14:58N 37°48' W 122°24'0 0.0
2017-Jul-17 14:28N 37°48' W 122°24'0 0.0
2017-Jul-17 14:00N 37°48' W 122°24'0 0.1
2017-Jul-17 13:30N 37°48' W 122°24'2 3.2
2017-Jul-17 13:01N 37°49' W 122°26'713.6
2017-Jul-17 12:31N 37°47' W 122°34'612.4
2017-Jul-17 12:00N 37°46' W 122°42'510.4
2017-Jul-17 11:31N 37°47' W 122°48'510.2
2017-Jul-17 11:01N 37°50' W 122°54'510.0
2017-Jul-17 10:31N 37°52' W 122°59'510.1
2017-Jul-17 10:00N 37°55' W 123°05'8540.1
2017-Jul-17 10:00N 37°48' W 123°00'1225.1 330 / 231010.610.8 12.5 9.613.0
2017-Jul-17 09:30N 37°57' W 123°10'510.0
2017-Jul-17 09:00N 38°01' W 123°14'510.1
2017-Jul-17 08:30N 38°05' W 123°19'510.5
2017-Jul-17 08:00N 38°09' W 123°23'1019.3
2017-Jul-17 07:30N 38°17' W 123°29'1019.9
2017-Jul-17 07:01N 38°25' W 123°36'1019.7
2017-Jul-17 06:30N 38°34' W 123°43'1020.9
2017-Jul-17 06:01N 38°42' W 123°50'1122.0
2017-Jul-17 05:30N 38°52' W 123°58'1221.6
2017-Jul-17 04:58N 39°02' W 124°06'1022.2
2017-Jul-17 04:30N 39°11' W 124°11'1122.7
2017-Jul-17 04:00N 39°22' W 124°15'171081.7
2017-Jul-17 04:00N 39°06' W 124°06'2959.6 330 / 341015.8 5.4 14.0 8.010.0
2017-Jul-17 03:30N 39°33' W 124°21'191126.3
2017-Jul-17 02:00N 42°42' W 124°54'0 0.0 330 / 341015.810.8 14.0 8.010.0
2017-Jul-16 19:00N 42°42' W 124°54'15619.8 020 / 251022.910.8 16.012.412.0
2017-Jul-16 11:05N 45°18' W 125°08'219.9
2017-Jul-16 10:58N 45°21' W 125°08'920.0
2017-Jul-16 10:30N 45°30' W 125°08'1020.5
2017-Jul-16 10:01N 45°40' W 125°09'1020.3
2017-Jul-16 09:30N 45°50' W 125°10'1020.4
2017-Jul-16 09:00N 46°00' W 125°10'1020.2
2017-Jul-16 08:30N 46°10' W 125°11'1020.1
2017-Jul-16 08:00N 46°20' W 125°12'1020.2
2017-Jul-16 07:30N 46°31' W 125°11'1020.0
2017-Jul-16 07:00N 46°41' W 125°11'1020.2
2017-Jul-16 06:31N 46°50' W 125°14'1020.2
2017-Jul-16 06:00N 47°00' W 125°15'7490.8
2017-Jul-16 06:00N 46°54' W 125°12'1832.3 280 / 201023.810.8 15.011.317.0
2017-Jul-16 05:26N 47°12' W 125°16'4720.1
2017-Jul-16 03:04N 47°59' W 125°20'219.3
2017-Jul-16 02:59N 48°01' W 125°20'919.7
2017-Jul-16 02:30N 48°10' W 125°15'1019.8
2017-Jul-16 02:00N 48°19' W 125°10'8709.0
2017-Jul-16 02:00N 48°12' W 125°06'1632.7 180 / 111023.510.8 16.0 8.113.0
2017-Jul-16 01:30N 48°28' W 125°04'918.3
2017-Jul-16 01:00N 48°31' W 124°51'1019.6
2017-Jul-16 00:30N 48°29' W 124°36'1019.7
2017-Jul-16 00:00N 48°25' W 124°23'1019.6
2017-Jul-15 23:30N 48°21' W 124°09'919.2
2017-Jul-15 23:00N 48°18' W 123°55'1019.6
2017-Jul-15 22:30N 48°16' W 123°41'917.8
2017-Jul-15 22:00N 48°18' W 123°28'612.6
2017-Jul-15 21:30N 48°24' W 123°24'1 1.9
2017-Jul-15 21:00N 48°25' W 123°23'0 0.0
2017-Jul-15 20:29N 48°25' W 123°23'0 0.0
2017-Jul-15 19:59N 48°25' W 123°23'0 0.0
2017-Jul-15 19:29N 48°25' W 123°23'0 0.0
2017-Jul-15 18:59N 48°25' W 123°23'0 0.0
2017-Jul-15 18:29N 48°25' W 123°23'0 0.0
2017-Jul-15 17:58N 48°25' W 123°23'0 0.0
2017-Jul-15 17:28N 48°25' W 123°23'0 0.0
2017-Jul-15 16:58N 48°25' W 123°23'0 0.0
2017-Jul-15 16:28N 48°25' W 123°23'0 0.0
2017-Jul-15 16:01N 48°25' W 123°23'0 0.0
2017-Jul-15 15:30N 48°25' W 123°23'0 0.0
2017-Jul-15 15:00N 48°25' W 123°23'0 0.0
2017-Jul-15 14:00N 48°25' W 123°23'2 3.5
2017-Jul-15 13:30N 48°23' W 123°25'713.8
2017-Jul-15 13:00N 48°17' W 123°26'917.9
2017-Jul-15 12:30N 48°14' W 123°39'919.1
2017-Jul-15 12:00N 48°14' W 123°53'1020.0
2017-Jul-15 11:30N 48°17' W 124°07'1019.4
2017-Jul-15 11:00N 48°21' W 124°21'919.0
2017-Jul-15 10:31N 48°25' W 124°34'918.8
2017-Jul-15 10:01N 48°28' W 124°47'1019.7
2017-Jul-15 09:31N 48°29' W 125°02'1019.0
2017-Jul-15 09:00N 48°31' W 125°16'1019.1
2017-Jul-15 08:30N 48°36' W 125°28'1019.7
2017-Jul-15 08:00N 48°42' W 125°40'1019.7
2017-Jul-15 07:31N 48°48' W 125°52'1019.8
2017-Jul-15 07:00N 48°54' W 126°04'1019.8
2017-Jul-15 06:30N 48°59' W 126°17'1019.6
2017-Jul-15 06:01N 49°05' W 126°29'6347.9
2017-Jul-15 06:00N 49°00' W 126°24'1632.3 180 / 81020.010.8 14.012.215.0
2017-Jul-15 05:30N 49°11' W 126°41'1020.4
2017-Jul-15 05:00N 49°17' W 126°54'917.5
2017-Jul-15 04:31N 49°22' W 127°04'4417.6
2017-Jul-15 02:00N 49°48' W 128°00'2128.1 140 / 61019.610.8 14.311.914.0
2017-Jul-15 01:14N 50°04' W 128°22'12219.6
2017-Jul-14 19:00N 51°24' W 130°48'7815.5 160 / 91021.010.8 13.011.112.0
2017-Jul-14 14:00N 52°18' W 132°18'3535.1 130 / 61020.410.8 13.512.214.0
2017-Jul-14 13:00N 52°48' W 132°48'8614.3 100 / 81022.810.8 13.012.611.0
2017-Jul-14 07:00N 54°06' W 133°48'7318.3 150 / 81019.710.8 12.510.613.0
2017-Jul-14 03:00N 55°18' W 134°12'12115.1 120 / 171018.810.8 13.010.712.0
2017-Jul-13 19:00N 57°18' W 133°48'12 1.4 190 / 51017.810.8 12.010.1 4.0
2017-Jul-13 10:00N 57°30' W 133°42'2512.4 150 / 91016.210.8 10.5 9.511.0
2017-Jul-13 08:00N 57°54' W 133°54'61 2.5 140 / 41016.2 5.4 10.5 9.511.0
2017-Jul-12 08:00N 58°42' W 135°06'12 0.7 340 / 161015.010.8 10.5 9.513.0
2017-Jul-11 15:00N 58°30' W 135°00'   340 / 71012.410.8 11.0 9.011.0

Dump ship's entire track history